Time;durP1;ratioP1;P1;durP2;ratioP2;P2;SDS_P1;SDS_P2;PMS_P1;PMS_P2;Temp;Humidity;BMP_temperature;BMP_pressure;BME280_temperature;BME280_humidity;BME280_pressure;Samples;Min_cycle;Max_cycle;Signal;HPM_P1;HPM_P2
2023/02/16 00:00:46;;;;;;;;;59.25;48.00;;;;;11.57;53.79;101874.59;6331111;22;45490;-75
2023/02/16 00:03:20;;;;;;;;;56.25;47.25;;;;;11.46;53.97;101848.06;6330150;22;45816;-76
2023/02/16 00:05:47;;;;;;;;;58.00;45.25;;;;;11.46;53.73;101858.56;6330735;22;45914;-75
2023/02/16 00:08:15;;;;;;;;;59.25;49.00;;;;;11.38;53.83;101844.19;6329853;22;45585;-77
2023/02/16 00:13:43;;;;;;;;;59.75;47.25;;;;;11.24;53.69;101829.19;6302459;22;48321;-76
2023/02/16 00:13:46;;;;;;;;;58.00;46.50;;;;;11.55;53.84;101868.56;6331594;22;46046;-74
2023/02/16 00:16:22;;;;;;;;;52.50;41.00;;;;;11.34;53.90;101851.38;6304312;22;46084;-75
2023/02/16 00:18:48;;;;;;;;;57.50;46.25;;;;;11.49;53.77;101868.91;6332387;22;45717;-74
2023/02/16 00:21:14;;;;;;;;;63.25;48.75;;;;;11.44;53.98;101867.47;6332192;22;45680;-74
2023/02/16 00:23:40;;;;;;;;;58.25;47.25;;;;;11.48;54.03;101872.47;6332658;22;45965;-77
2023/02/16 00:26:13;;;;;;;;;63.75;49.75;;;;;11.48;54.00;101869.84;6332157;22;45537;-75
2023/02/16 00:28:42;;;;;;;;;63.25;51.25;;;;;11.44;53.89;101863.06;6332905;22;45504;-76
2023/02/16 00:31:15;;;;;;;;;59.75;47.25;;;;;11.44;53.90;101859.59;6331773;22;46471;-75
2023/02/16 00:33:40;;;;;;;;;64.00;51.00;;;;;11.42;54.07;101858.84;6330548;22;47178;-76
2023/02/16 00:36:06;;;;;;;;;62.25;50.00;;;;;11.37;54.01;101853.84;6332384;22;45585;-75
2023/02/16 00:38:31;;;;;;;;;64.25;49.25;;;;;11.34;54.34;101853.97;6304834;22;45843;-75
2023/02/16 00:40:57;;;;;;;;;65.75;48.00;;;;;11.30;54.12;101852.47;6332391;22;46160;-75
2023/02/16 00:43:27;;;;;;;;;60.25;49.00;;;;;11.35;54.13;101859.16;6331382;22;46869;-75
2023/02/16 00:45:53;;;;;;;;;58.00;46.75;;;;;11.18;54.06;101837.38;6332996;22;45906;-74
2023/02/16 00:48:20;;;;;;;;;60.50;49.25;;;;;11.14;54.06;101820.97;6332880;22;45643;-78
2023/02/16 00:50:46;;;;;;;;;65.00;48.00;;;;;11.27;54.26;101844.78;6332650;22;45729;-77
2023/02/16 00:57:17;;;;;;;;;57.50;45.25;;;;;11.26;54.33;101848.31;6330502;22;46205;-76
2023/02/16 00:59:44;;;;;;;;;59.25;47.50;;;;;11.20;54.29;101833.75;6332542;22;45524;-75
2023/02/16 01:02:09;;;;;;;;;45.25;39.25;;;;;11.18;54.40;101832.97;6332155;22;45596;-74
2023/02/16 01:04:35;;;;;;;;;60.50;43.00;;;;;11.18;54.50;101835.59;6332326;22;46143;-76
2023/02/16 01:12:28;;;;;;;;;61.00;45.50;;;;;11.15;54.58;101840.19;6332463;22;45774;-75
2023/02/16 01:14:54;;;;;;;;;56.25;44.25;;;;;11.12;54.47;101827.25;6331664;22;47153;-76
2023/02/16 01:17:21;;;;;;;;;50.50;42.00;;;;;11.12;54.48;101829.88;6331639;22;45582;-74
2023/02/16 01:19:46;;;;;;;;;52.50;43.00;;;;;11.09;54.54;101832.63;6332203;22;45670;-76
2023/02/16 01:22:11;;;;;;;;;51.00;38.50;;;;;11.12;54.66;101835.13;6332118;22;46318;-75
2023/02/16 01:24:37;;;;;;;;;51.75;43.00;;;;;11.11;54.45;101829.03;6331852;22;45630;-76
2023/02/16 01:27:02;;;;;;;;;56.50;42.50;;;;;11.09;54.55;101828.25;6332710;22;45665;-77
2023/02/16 01:29:28;;;;;;;;;52.75;44.25;;;;;11.06;54.67;101823.19;6304278;22;45995;-77
2023/02/16 01:31:54;;;;;;;;;57.75;43.00;;;;;11.04;54.57;101824.16;6331807;22;45604;-72
2023/02/16 01:34:19;;;;;;;;;59.00;45.25;;;;;11.10;54.71;101823.84;6332259;22;45583;-76
2023/02/16 01:36:56;;;;;;;;;53.75;43.00;;;;;11.10;54.70;101827.31;6331918;22;45619;-77
2023/02/16 01:39:22;;;;;;;;;49.50;39.00;;;;;11.09;54.71;101825.63;6303678;22;45524;-75
2023/02/16 01:41:53;;;;;;;;;51.00;42.00;;;;;11.09;54.88;101824.78;6331732;22;46266;-77
2023/02/16 01:44:28;;;;;;;;;54.00;44.00;;;;;10.94;54.72;101797.59;6303344;22;46785;-77
2023/02/16 01:47:01;;;;;;;;;55.75;43.25;;;;;11.01;54.81;101814.72;6331831;22;45993;-77
2023/02/16 01:49:27;;;;;;;;;55.75;45.25;;;;;10.28;54.96;101684.94;6304204;22;46143;-75
2023/02/16 01:52:11;;;;;;;;;55.00;43.50;;;;;11.07;54.89;101816.13;6331218;22;46538;-77
2023/02/16 01:54:50;;;;;;;;;49.50;42.50;;;;;10.79;54.88;101756.47;6303876;22;46510;-78
2023/02/16 01:57:28;;;;;;;;;54.25;44.00;;;;;10.94;54.94;101782.72;6304140;22;45814;-77
2023/02/16 01:59:53;;;;;;;;;55.50;46.50;;;;;11.02;54.97;101803.28;6328258;22;45944;-76
2023/02/16 02:02:22;;;;;;;;;61.25;43.50;;;;;11.00;54.87;101805.16;6331362;22;47097;-77
2023/02/16 02:07:48;;;;;;;;;57.25;45.75;;;;;10.93;54.94;101798.53;6332260;22;45905;-78
2023/02/16 02:10:30;;;;;;;;;56.50;43.50;;;;;10.90;54.92;101802.16;6331933;22;45782;-75
2023/02/16 02:13:20;;;;;;;;;53.25;42.75;;;;;10.88;55.17;101792.69;6332048;22;45776;-75
2023/02/16 02:15:45;;;;;;;;;55.50;45.00;;;;;10.84;55.17;101792.00;6332374;22;45597;-74
2023/02/16 02:18:11;;;;;;;;;56.75;44.50;;;;;10.83;54.98;101789.47;6331284;22;45656;-74
2023/02/16 02:24:33;;;;;;;;;53.75;42.75;;;;;10.77;55.17;101772.28;6331418;22;46098;-76
2023/02/16 02:27:22;;;;;;;;;56.25;43.75;;;;;10.74;55.26;101769.81;6234787;22;46279;-77
2023/02/16 02:30:12;;;;;;;;;60.00;43.25;;;;;10.72;55.27;101768.22;6234995;22;46065;-78
2023/02/16 02:33:08;;;;;;;;;57.75;43.50;;;;;10.71;55.40;101769.13;6235960;22;45668;-76
2023/02/16 02:35:56;;;;;;;;;58.50;44.50;;;;;10.68;55.44;101771.94;6235546;22;45620;-73
2023/02/16 02:42:05;;;;;;;;;50.50;41.25;;;;;10.62;55.36;101778.34;6235117;22;46262;-76
2023/02/16 02:44:38;;;;;;;;;51.25;41.75;;;;;10.49;55.50;101764.16;6235677;22;45779;-71
2023/02/16 02:47:03;;;;;;;;;52.25;37.75;;;;;10.58;55.48;101781.22;6235837;22;45783;-74
2023/02/16 02:49:29;;;;;;;;;53.50;43.50;;;;;10.54;55.39;101770.00;6234788;22;46098;-76
2023/02/16 02:51:54;;;;;;;;;54.00;42.25;;;;;10.47;55.58;101761.63;6235433;22;45647;-72
2023/02/16 03:00:46;;;;;;;;;52.25;42.50;;;;;10.50;55.48;101782.44;6235369;22;45956;-76
2023/02/16 03:03:31;;;;;;;;;52.50;44.00;;;;;10.46;55.42;101767.81;6303821;22;45667;-75
2023/02/16 03:06:06;;;;;;;;;48.75;41.00;;;;;10.48;55.77;101773.81;6331616;22;45611;-76
2023/02/16 03:14:49;;;;;;;;;52.75;43.00;;;;;10.45;55.75;101766.13;6331524;22;45614;-74
2023/02/16 03:31:46;;;;;;;;;53.25;42.00;;;;;10.37;55.70;101763.03;6331175;22;45547;-76
2023/02/16 03:34:12;;;;;;;;;41.75;39.25;;;;;10.38;55.74;101769.13;6331027;22;47061;-75
2023/02/16 03:36:42;;;;;;;;;45.50;40.50;;;;;10.32;55.99;101745.84;6331086;22;45753;-73
2023/02/16 03:39:08;;;;;;;;;51.75;40.50;;;;;10.30;55.99;101748.59;6331977;22;45602;-75
2023/02/16 03:41:39;;;;;;;;;52.25;41.50;;;;;10.34;56.08;101755.34;6331335;22;46668;-73
2023/02/16 03:44:04;;;;;;;;;47.50;40.25;;;;;10.32;56.16;101753.72;6331045;22;46084;-74
2023/02/16 03:46:30;;;;;;;;;46.00;40.25;;;;;10.31;56.12;101759.91;6302863;22;46148;-73
2023/02/16 03:48:55;;;;;;;;;48.25;39.00;;;;;10.27;55.92;101751.34;6331374;22;45953;-74
2023/02/16 03:51:21;;;;;;;;;50.00;40.00;;;;;10.25;56.24;101750.59;6331188;22;48679;-73
2023/02/16 03:53:46;;;;;;;;;48.50;39.75;;;;;10.28;56.41;101760.91;6330846;22;46782;-74
2023/02/16 03:56:11;;;;;;;;;45.75;40.25;;;;;10.28;56.15;101765.28;6331639;22;45584;-75
2023/02/16 03:58:37;;;;;;;;;50.25;41.25;;;;;10.25;56.47;101758.44;6330685;22;45821;-75
2023/02/16 04:01:02;;;;;;;;;46.75;40.75;;;;;10.25;56.58;101768.06;6331415;22;46694;-73
2023/02/16 04:03:28;;;;;;;;;54.25;41.00;;;;;10.22;56.54;101765.59;6330516;22;47201;-76
2023/02/16 04:05:55;;;;;;;;;45.50;37.25;;;;;10.24;56.52;101776.84;6331870;22;45736;-74
2023/02/16 04:08:20;;;;;;;;;48.50;41.00;;;;;10.23;56.56;101770.75;6330920;22;45641;-76
2023/02/16 04:14:07;;;;;;;;;39.50;36.00;;;;;10.17;56.73;101763.22;6331070;22;46074;-75
2023/02/16 04:16:33;;;;;;;;;46.00;36.00;;;;;10.16;56.82;101766.75;6331418;22;45414;-76
2023/02/16 04:18:58;;;;;;;;;45.00;37.75;;;;;10.15;57.22;101761.59;6331160;22;45603;-77
2023/02/16 04:21:23;;;;;;;;;45.50;39.50;;;;;10.11;57.03;101753.88;6331063;22;45953;-74
2023/02/16 04:23:49;;;;;;;;;45.50;38.50;;;;;10.11;57.24;101753.88;6330388;22;46207;-75
2023/02/16 04:26:14;;;;;;;;;43.50;39.25;;;;;10.09;57.01;101758.31;6330771;22;45505;-75
2023/02/16 04:28:39;;;;;;;;;45.00;37.00;;;;;10.07;57.28;101760.19;6329436;22;45700;-75
2023/02/16 04:31:05;;;;;;;;;37.75;34.75;;;;;10.06;57.15;101755.88;6331548;22;45729;-77
2023/02/16 04:33:30;;;;;;;;;41.75;36.75;;;;;10.01;57.31;101749.16;6333411;22;46549;-75
2023/02/16 04:35:55;;;;;;;;;47.75;40.50;;;;;9.97;57.57;101745.03;6336509;22;45557;-74
2023/02/16 04:38:21;;;;;;;;;43.50;36.25;;;;;10.02;57.41;101756.09;6332439;22;45634;-74
2023/02/16 04:44:07;;;;;;;;;39.50;38.00;;;;;10.02;57.25;101756.97;6331093;22;46114;-74
2023/02/16 04:46:33;;;;;;;;;46.00;37.25;;;;;9.96;57.56;101744.16;6331022;22;45802;-73
2023/02/16 04:48:58;;;;;;;;;48.00;40.00;;;;;9.96;57.61;101751.16;6331768;22;45760;-75
2023/02/16 04:51:24;;;;;;;;;46.50;37.00;;;;;10.00;57.60;101753.56;6330714;22;45675;-75
2023/02/16 04:53:49;;;;;;;;;46.75;37.00;;;;;9.94;57.60;101740.78;6328764;22;47337;-74
2023/02/16 04:59:49;;;;;;;;;47.75;40.25;;;;;9.93;57.68;101754.78;6327208;22;45698;-77
2023/02/16 05:02:15;;;;;;;;;42.50;37.50;;;;;9.91;57.64;101763.66;6332547;22;46249;-76
2023/02/16 05:04:41;;;;;;;;;38.50;34.75;;;;;9.91;58.04;101764.50;6332601;22;45560;-77
2023/02/16 05:07:06;;;;;;;;;48.00;38.75;;;;;9.87;57.50;101759.50;6331803;22;45769;-77
2023/02/16 05:09:32;;;;;;;;;54.50;40.00;;;;;9.86;57.85;101755.19;6332993;22;45640;-76
2023/02/16 05:14:45;;;;;;;;;42.00;38.00;;;;;9.86;57.91;101757.78;6332245;22;45958;-76
2023/02/16 05:17:22;;;;;;;;;40.50;36.00;;;;;9.93;57.75;101772.28;6332583;22;45754;-77
2023/02/16 05:19:51;;;;;;;;;42.25;36.00;;;;;9.93;57.92;101775.72;6332474;22;45465;-74
2023/02/16 05:22:16;;;;;;;;;40.00;35.00;;;;;9.92;58.08;101757.50;6332747;22;45552;-75
2023/02/16 05:24:42;;;;;;;;;37.75;30.50;;;;;9.92;58.02;101755.72;6331721;22;45437;-73
2023/02/16 05:27:11;;;;;;;;;46.00;38.25;;;;;9.94;57.98;101760.88;6332351;22;45795;-74
2023/02/16 05:29:37;;;;;;;;;40.50;37.25;;;;;9.93;57.96;101753.97;6332732;22;45597;-73
2023/02/16 05:32:02;;;;;;;;;47.75;39.75;;;;;9.93;58.21;101756.56;6331557;22;47213;-75
2023/02/16 05:34:27;;;;;;;;;48.25;39.25;;;;;9.93;58.21;101760.00;6331381;22;47280;-74
2023/02/16 05:36:54;;;;;;;;;42.50;37.00;;;;;9.93;58.14;101756.56;6332392;22;45698;-77
2023/02/16 05:39:20;;;;;;;;;44.00;37.25;;;;;9.93;58.21;101761.81;6331906;22;45792;-77
2023/02/16 05:45:07;;;;;;;;;46.75;39.75;;;;;9.91;58.31;101766.25;6332273;22;45708;-77
2023/02/16 05:47:33;;;;;;;;;51.75;39.75;;;;;9.89;58.42;101760.25;6332082;22;45774;-77
2023/02/16 05:49:58;;;;;;;;;47.00;37.00;;;;;9.89;58.38;101768.94;6332589;22;45941;-75
2023/02/16 05:52:23;;;;;;;;;45.50;38.50;;;;;9.88;58.24;101772.47;6331547;22;46527;-75
2023/02/16 05:54:49;;;;;;;;;47.25;38.25;;;;;9.86;58.18;101760.41;6332267;22;45715;-75
2023/02/16 05:57:14;;;;;;;;;40.50;36.25;;;;;9.87;58.53;101760.34;6332731;22;45593;-77
2023/02/16 05:59:39;;;;;;;;;46.75;37.50;;;;;9.78;58.40;101752.94;6306839;22;45744;-79
2023/02/16 06:02:05;;;;;;;;;41.75;35.25;;;;;9.83;58.48;101758.78;6334947;22;45455;-76
2023/02/16 06:04:31;;;;;;;;;46.25;38.25;;;;;9.86;58.30;101769.13;6339693;22;46956;-73
2023/02/16 06:06:57;;;;;;;;;43.25;35.75;;;;;9.81;58.53;101754.56;6311464;22;45802;-77
2023/02/16 06:09:22;;;;;;;;;41.75;36.50;;;;;9.86;58.75;101763.88;6336045;22;45728;-76
2023/02/16 06:15:09;;;;;;;;;38.50;30.75;;;;;9.89;58.71;101760.25;6332896;22;46095;-74
2023/02/16 06:17:34;;;;;;;;;46.00;37.50;;;;;9.89;58.83;101755.88;6332565;22;45583;-76
2023/02/16 06:20:00;;;;;;;;;42.75;37.00;;;;;9.88;58.66;101764.63;6333157;22;45851;-74
2023/02/16 06:22:25;;;;;;;;;40.50;37.75;;;;;9.84;58.78;101752.63;6331894;22;45651;-77
2023/02/16 06:24:50;;;;;;;;;40.25;34.25;;;;;9.85;58.74;101761.31;6331522;22;45573;-73
2023/02/16 06:30:38;;;;;;;;;39.00;34.50;;;;;9.93;58.66;101774.91;6331633;22;45525;-75
2023/02/16 06:33:23;;;;;;;;;41.25;33.75;;;;;9.92;58.87;101781.91;6332418;22;47123;-78
2023/02/16 06:35:51;;;;;;;;;45.25;38.50;;;;;9.93;58.99;101786.19;6332564;22;46560;-76
2023/02/16 06:38:17;;;;;;;;;40.25;36.25;;;;;9.93;59.05;101780.13;6333865;22;45604;-76
2023/02/16 06:40:45;;;;;;;;;43.25;35.25;;;;;9.78;58.77;101758.16;6336819;22;45966;-76
2023/02/16 06:43:19;;;;;;;;;43.00;36.50;;;;;9.93;58.99;101790.59;6308162;22;48445;-77
2023/02/16 06:45:45;;;;;;;;;38.75;36.75;;;;;9.80;58.94;101771.19;6332812;22;46034;-75
2023/02/16 06:48:16;;;;;;;;;42.25;37.25;;;;;9.93;58.93;101809.75;6331444;22;45647;-78
2023/02/16 06:50:47;;;;;;;;;37.00;33.00;;;;;9.71;59.15;101769.88;6328874;22;46122;-77
2023/02/16 06:53:12;;;;;;;;;38.50;35.00;;;;;9.94;58.87;101805.38;6332053;22;45603;-76
2023/02/16 06:55:38;;;;;;;;;39.00;32.75;;;;;9.71;59.20;101762.03;6331381;22;46756;-75
2023/02/16 06:58:04;;;;;;;;;37.75;33.25;;;;;9.94;59.18;101806.22;6332324;22;45817;-76
2023/02/16 07:00:29;;;;;;;;;38.50;33.25;;;;;9.95;59.12;101805.28;6332036;22;45415;-76
2023/02/16 07:02:55;;;;;;;;;40.00;35.25;;;;;9.92;59.26;101809.84;6331365;22;47286;-74
2023/02/16 07:05:20;;;;;;;;;48.75;37.25;;;;;9.95;59.28;101810.53;6331580;22;46139;-78
2023/02/16 07:07:46;;;;;;;;;47.75;38.75;;;;;9.95;59.16;101818.38;6331230;22;45730;-76
2023/02/16 07:10:11;;;;;;;;;45.50;37.75;;;;;9.96;59.45;101817.47;6332084;22;45450;-73
2023/02/16 07:15:58;;;;;;;;;38.75;36.25;;;;;9.97;59.34;101820.94;6331458;22;46040;-73
2023/02/16 07:18:23;;;;;;;;;41.00;35.75;;;;;10.00;59.40;101828.63;6331504;22;45594;-71
2023/02/16 07:20:48;;;;;;;;;42.25;35.25;;;;;10.01;59.36;101831.19;6330597;22;45473;-72
2023/02/16 07:23:14;;;;;;;;;39.00;35.50;;;;;10.03;59.44;101836.34;6330618;22;46533;-71
2023/02/16 07:25:39;;;;;;;;;39.75;35.75;;;;;10.05;59.52;101844.97;6331755;22;45599;-73
2023/02/16 07:31:26;;;;;;;;;42.75;36.25;;;;;9.98;59.52;101817.41;6331208;22;45633;-73
2023/02/16 07:33:52;;;;;;;;;44.50;37.00;;;;;10.09;59.64;101842.09;6331114;22;46379;-72
2023/02/16 07:36:17;;;;;;;;;41.75;38.00;;;;;10.16;59.61;101847.94;6330961;22;46125;-71
2023/02/16 07:38:43;;;;;;;;;42.50;39.00;;;;;10.19;59.77;101849.56;6330962;22;45419;-70
2023/02/16 07:41:09;;;;;;;;;43.00;37.75;;;;;10.21;59.64;101848.53;6331519;22;45728;-71
2023/02/16 07:43:34;;;;;;;;;38.75;36.25;;;;;10.24;59.63;101855.41;6330907;22;46652;-71
2023/02/16 07:46:00;;;;;;;;;52.25;41.00;;;;;10.23;59.83;101841.47;6302853;22;48160;-72
2023/02/16 07:48:26;;;;;;;;;42.50;37.25;;;;;10.23;59.72;101840.63;6331378;22;45638;-71
2023/02/16 07:50:51;;;;;;;;;41.00;36.00;;;;;10.27;59.72;101850.00;6331430;22;45725;-71
2023/02/16 07:53:17;;;;;;;;;42.25;38.50;;;;;10.30;59.46;101853.34;6331310;22;45761;-73
2023/02/16 07:55:44;;;;;;;;;42.25;35.25;;;;;10.31;59.70;101849.78;6330513;22;46319;-73
2023/02/16 08:01:31;;;;;;;;;39.50;34.50;;;;;10.35;59.50;101855.72;6325968;22;45927;-70
2023/02/16 08:03:57;;;;;;;;;44.25;36.00;;;;;10.36;59.51;101849.56;6331391;22;45559;-73
2023/02/16 08:06:22;;;;;;;;;50.00;39.00;;;;;10.36;59.77;101847.81;6331177;22;46850;-73
2023/02/16 08:08:48;;;;;;;;;41.75;37.25;;;;;10.24;59.59;101837.09;6330717;22;45718;-73
2023/02/16 08:11:18;;;;;;;;;43.50;34.50;;;;;10.41;59.71;101863.28;6331437;22;45784;-73
2023/02/16 08:17:07;;;;;;;;;45.75;38.75;;;;;10.45;59.83;101863.06;6330893;22;45780;-72
2023/02/16 08:19:33;;;;;;;;;35.00;31.25;;;;;10.47;59.79;101866.41;6331801;22;45783;-72
2023/02/16 08:22:01;;;;;;;;;40.25;35.75;;;;;10.48;59.84;101870.75;6330524;22;45576;-71
2023/02/16 08:24:27;;;;;;;;;38.50;34.00;;;;;10.49;60.06;101863.72;6330317;22;47283;-70
2023/02/16 08:26:54;;;;;;;;;35.75;31.25;;;;;10.51;59.84;101857.50;6329994;22;46055;-73
2023/02/16 08:29:24;;;;;;;;;43.75;37.00;;;;;10.52;60.22;101864.44;6330706;22;45589;-73
2023/02/16 08:31:50;;;;;;;;;44.25;37.50;;;;;10.53;60.03;101860.03;6330183;22;45509;-71
2023/02/16 08:34:16;;;;;;;;;42.50;37.50;;;;;10.49;60.21;101846.25;6331775;22;45843;-73
2023/02/16 08:36:44;;;;;;;;;45.50;38.25;;;;;10.56;60.50;101857.28;6331383;22;47217;-72
2023/02/16 08:39:15;;;;;;;;;44.75;35.75;;;;;10.55;60.39;101845.09;6304165;22;45597;-74
2023/02/16 08:41:42;;;;;;;;;45.75;39.25;;;;;10.59;60.38;101838.75;6331764;22;45454;-71
2023/02/16 08:47:30;;;;;;;;;48.25;40.50;;;;;10.62;60.58;101833.38;6332376;22;45626;-73
2023/02/16 08:49:55;;;;;;;;;43.25;35.75;;;;;10.64;60.45;101830.66;6332960;22;45777;-74
2023/02/16 08:52:20;;;;;;;;;45.50;38.00;;;;;10.67;60.57;101833.97;6331420;22;45680;-74
2023/02/16 08:54:46;;;;;;;;;52.50;39.50;;;;;10.73;60.64;101844.16;6332337;22;46669;-71
2023/02/16 08:57:12;;;;;;;;;41.50;36.00;;;;;10.77;60.66;101850.06;6331219;22;45950;-72
2023/02/16 08:59:37;;;;;;;;;42.25;38.00;;;;;10.80;60.81;101845.50;6332068;22;45659;-72
2023/02/16 09:02:03;;;;;;;;;43.25;36.75;;;;;10.70;60.64;101815.47;6331393;22;45810;-72
2023/02/16 09:04:29;;;;;;;;;44.00;39.00;;;;;10.80;60.60;101835.03;6331618;22;47273;-73
2023/02/16 09:06:57;;;;;;;;;43.75;39.00;;;;;10.86;60.59;101831.22;6331497;22;46802;-70
2023/02/16 09:09:22;;;;;;;;;44.25;38.25;;;;;10.90;60.63;101833.59;6331778;22;45551;-72
2023/02/16 09:11:48;;;;;;;;;45.50;37.50;;;;;10.90;60.40;101849.34;6332687;22;45849;-73
2023/02/16 09:17:34;;;;;;;;;48.25;39.00;;;;;10.98;60.71;101876.94;6332126;22;45658;-73
2023/02/16 09:20:00;;;;;;;;;42.50;39.00;;;;;10.94;60.44;101866.63;6332388;22;45619;-71
2023/02/16 09:22:26;;;;;;;;;42.25;36.00;;;;;11.03;60.51;101870.53;6303508;22;45984;-73
2023/02/16 09:24:51;;;;;;;;;46.50;40.00;;;;;11.05;60.42;101878.31;6331580;22;46283;-72
2023/02/16 09:27:17;;;;;;;;;50.75;39.25;;;;;11.11;60.32;101884.09;6332221;22;45612;-72
2023/02/16 09:29:42;;;;;;;;;47.25;37.75;;;;;11.16;60.74;101891.72;6331652;22;45605;-72
2023/02/16 09:32:09;;;;;;;;;44.00;37.50;;;;;11.21;60.62;101893.16;6331318;22;45718;-73
2023/02/16 09:34:35;;;;;;;;;45.50;39.75;;;;;11.24;60.59;101879.88;6332069;22;47296;-69
2023/02/16 09:37:01;;;;;;;;;46.25;38.00;;;;;11.21;60.66;101858.22;6331400;22;45844;-72
2023/02/16 09:39:27;;;;;;;;;46.75;38.75;;;;;11.30;61.02;101876.06;6331410;22;45539;-72
2023/02/16 09:42:10;;;;;;;;;44.00;36.75;;;;;11.39;60.93;101872.13;6332108;22;45721;-70
2023/02/16 09:47:58;;;;;;;;;49.25;40.50;;;;;11.48;60.68;101871.63;6331598;22;45794;-73
2023/02/16 09:50:26;;;;;;;;;45.50;38.00;;;;;11.57;60.59;101874.59;6331310;22;45485;-71
2023/02/16 09:53:05;;;;;;;;;43.25;38.00;;;;;11.63;60.37;101876.03;6331704;22;45824;-71
2023/02/16 09:55:53;;;;;;;;;44.25;37.25;;;;;11.67;60.48;101882.78;6332592;22;46526;-72
2023/02/16 09:58:25;;;;;;;;;42.00;38.25;;;;;11.68;60.39;101876.63;6331733;22;45665;-69
2023/02/16 10:01:00;;;;;;;;;48.25;38.00;;;;;11.74;60.32;101871.91;6331824;22;45841;-70
2023/02/16 10:03:41;;;;;;;;;41.50;36.00;;;;;11.77;60.77;101874.34;6304728;22;45621;-72
2023/02/16 10:06:12;;;;;;;;;43.75;38.00;;;;;11.85;60.95;101886.22;6331567;22;46322;-73
2023/02/16 10:08:46;;;;;;;;;50.50;39.75;;;;;11.86;60.71;101885.28;6331443;22;46439;-71
2023/02/16 10:11:40;;;;;;;;;42.25;37.50;;;;;11.90;60.50;101884.19;6332030;22;45757;-70
2023/02/16 10:14:30;;;;;;;;;37.50;28.75;;;;;11.96;60.60;101892.56;6331564;22;45554;-70
2023/02/16 10:17:18;;;;;;;;;41.75;35.00;;;;;12.02;60.49;101886.13;6331781;22;46189;-70
2023/02/16 10:20:06;;;;;;;;;42.25;37.75;;;;;12.04;60.46;101878.97;6331607;22;47184;-73
2023/02/16 10:22:35;;;;;;;;;48.00;38.50;;;;;12.14;60.49;101885.44;6331428;22;45794;-71
2023/02/16 10:25:14;;;;;;;;;44.75;37.75;;;;;12.14;60.27;101880.19;6303699;22;45709;-73
2023/02/16 10:27:43;;;;;;;;;47.00;37.75;;;;;12.26;60.24;101886.47;6331415;22;47562;-72
2023/02/16 10:30:14;;;;;;;;;40.50;34.00;;;;;12.28;60.37;101890.72;6331019;22;45681;-74
2023/02/16 10:32:56;;;;;;;;;35.50;32.50;;;;;12.30;60.72;101885.41;6331688;22;45847;-73
2023/02/16 10:35:39;;;;;;;;;40.00;34.50;;;;;12.33;60.58;101885.19;6331725;22;45646;-72
2023/02/16 10:38:14;;;;;;;;;28.25;27.00;;;;;12.40;60.69;101892.66;6303166;22;46503;-71
2023/02/16 10:40:51;;;;;;;;;41.75;35.25;;;;;12.43;60.35;101894.25;6331197;22;46053;-73
2023/02/16 10:46:45;;;;;;;;;40.00;34.75;;;;;12.49;60.51;101899.16;6332252;22;45676;-71
2023/02/16 10:49:13;;;;;;;;;37.50;25.50;;;;;12.51;61.05;101895.50;6331974;22;45861;-72
2023/02/16 10:51:41;;;;;;;;;36.00;33.50;;;;;12.52;61.26;101886.66;6331841;22;46061;-71
2023/02/16 10:54:13;;;;;;;;;40.25;32.00;;;;;12.54;61.21;101881.31;6331379;22;45900;-72
2023/02/16 10:56:48;;;;;;;;;38.25;33.00;;;;;12.60;61.28;101884.44;6332481;22;45537;-73
2023/02/16 11:02:46;;;;;;;;;39.50;34.75;;;;;12.63;61.10;101884.25;6326845;22;45830;-70
2023/02/16 11:05:39;;;;;;;;;32.00;29.75;;;;;12.64;61.18;101882.47;6332350;22;45568;-71
2023/02/16 11:08:07;;;;;;;;;36.75;32.50;;;;;12.65;61.37;101878.91;6327134;22;45913;-71
2023/02/16 11:10:45;;;;;;;;;38.00;32.00;;;;;12.69;61.27;101884.81;6331084;22;47180;-73
2023/02/16 11:16:33;;;;;;;;;31.00;28.25;;;;;12.74;61.43;101883.59;6331727;22;45846;-73
2023/02/16 11:19:06;;;;;;;;;33.50;30.50;;;;;12.76;61.73;101883.53;6332113;22;45688;-72
2023/02/16 11:22:01;;;;;;;;;36.00;32.00;;;;;12.81;61.93;101890.19;6303303;22;46747;-71
2023/02/16 11:24:36;;;;;;;;;32.75;28.25;;;;;12.81;62.14;101879.69;6203510;22;46581;-72
2023/02/16 11:27:12;;;;;;;;;29.50;28.00;;;;;12.87;62.25;101878.47;6204555;22;45807;-72
2023/02/16 11:33:01;;;;;;;;;35.00;29.00;;;;;12.97;62.33;101872.56;6203726;22;46348;-72
2023/02/16 11:35:30;;;;;;;;;35.25;28.50;;;;;13.01;62.05;101874.06;6204428;22;45964;-71
2023/02/16 11:37:56;;;;;;;;;26.50;26.00;;;;;13.06;62.41;101863.28;6204244;22;45891;-72
2023/02/16 11:40:39;;;;;;;;;32.50;27.00;;;;;13.07;62.59;101850.94;6204419;22;45638;-73
2023/02/16 11:43:07;;;;;;;;;31.25;26.75;;;;;13.18;62.19;101856.41;6204039;22;45551;-73
2023/02/16 11:48:54;;;;;;;;;29.50;25.50;;;;;13.29;62.62;101861.88;6204118;22;45585;-73
2023/02/16 11:51:32;;;;;;;;;30.50;25.75;;;;;13.32;62.18;101862.53;6204037;22;45750;-72
2023/02/16 11:54:01;;;;;;;;;27.50;24.75;;;;;13.38;62.65;101861.31;6202721;22;46689;-71
2023/02/16 11:56:32;;;;;;;;;31.25;26.50;;;;;13.36;62.08;101842.97;6203368;22;45596;-73
2023/02/16 11:59:13;;;;;;;;;27.25;22.50;;;;;13.45;62.67;101852.91;6203367;22;45805;-72
2023/02/16 12:02:10;;;;;;;;;28.25;23.75;;;;;13.51;62.56;101842.94;6306913;22;45627;-70
2023/02/16 12:05:06;;;;;;;;;21.25;20.25;;;;;13.54;62.64;101832.22;6330845;22;47144;-71
2023/02/16 12:07:32;;;;;;;;;19.25;18.25;;;;;13.55;62.85;101829.47;6331558;22;45990;-71
2023/02/16 12:10:24;;;;;;;;;17.25;16.00;;;;;13.56;62.53;101840.84;6332556;22;45558;-72
2023/02/16 12:13:07;;;;;;;;;20.25;19.00;;;;;13.57;62.91;101824.97;6331535;22;45540;-72
2023/02/16 12:15:45;;;;;;;;;21.50;19.50;;;;;13.60;62.39;101822.16;6332607;22;45529;-72
2023/02/16 12:18:18;;;;;;;;;18.50;18.50;;;;;13.58;62.76;101813.50;6331603;22;46511;-72
2023/02/16 12:20:53;;;;;;;;;21.50;20.50;;;;;13.64;62.66;101818.38;6331435;22;46031;-71
2023/02/16 12:24:16;;;;;;;;;17.25;13.00;;;;;13.70;62.34;101819.75;6331781;22;45740;-72
2023/02/16 12:26:52;;;;;;;;;19.00;17.00;;;;;13.75;62.25;101825.56;6174458;22;45895;-73
2023/02/16 12:32:45;;;;;;;;;21.00;18.00;;;;;13.88;61.72;101819.41;6174176;23;45685;-73
2023/02/16 12:35:16;;;;;;;;;19.00;18.00;;;;;13.96;61.76;101828.59;6174230;23;46031;-74
2023/02/16 12:37:51;;;;;;;;;16.00;16.00;;;;;14.00;61.38;101825.66;6174208;23;46766;-73
2023/02/16 12:40:45;;;;;;;;;15.75;14.00;;;;;14.03;60.83;101808.81;6173879;23;47046;-71
2023/02/16 12:43:34;;;;;;;;;19.00;18.25;;;;;14.08;60.78;101799.66;6113766;23;45875;-72
2023/02/16 12:49:26;;;;;;;;;17.50;16.25;;;;;14.20;60.48;101800.59;6114739;23;46092;-74
2023/02/16 12:52:09;;;;;;;;;19.00;17.75;;;;;14.30;59.55;101796.44;6114621;23;46357;-71
2023/02/16 12:54:50;;;;;;;;;17.50;16.00;;;;;14.44;59.46;101800.78;6114696;23;45569;-71
2023/02/16 12:57:19;;;;;;;;;19.25;17.25;;;;;14.53;59.03;101795.72;6115000;23;45996;-73
2023/02/16 13:00:03;;;;;;;;;17.75;16.50;;;;;14.61;57.47;101803.97;6114833;23;45935;-73
2023/02/16 13:02:39;;;;;;;;;13.25;12.00;;;;;14.66;56.88;101793.09;6127521;23;46903;-72
2023/02/16 13:05:20;;;;;;;;;15.25;14.50;;;;;14.73;56.28;101794.34;6175441;23;45795;-70
2023/02/16 13:07:47;;;;;;;;;11.00;10.00;;;;;14.71;54.78;101785.69;6174617;23;45938;-72
2023/02/16 13:10:50;;;;;;;;;10.75;9.75;;;;;14.78;54.97;101800.16;6174150;23;45740;-72
2023/02/16 13:13:20;;;;;;;;;11.00;10.00;;;;;14.77;54.42;101792.34;6174479;23;46244;-70
2023/02/16 13:16:00;;;;;;;;;12.25;11.75;;;;;14.81;54.54;101797.28;6174669;23;45549;-72
2023/02/16 13:18:30;;;;;;;;;11.50;10.00;;;;;14.80;54.46;101785.03;6174665;23;45961;-72
2023/02/16 13:21:18;;;;;;;;;10.50;9.75;;;;;14.84;54.87;101791.81;6303623;22;46766;-69
2023/02/16 13:24:05;;;;;;;;;12.50;11.75;;;;;14.89;54.41;101783.56;6332003;22;46653;-69